createdAt,value
2019-05-15T00:01:05.315Z,9.50
2019-05-15T00:03:10.265Z,9.50
2019-05-15T00:05:15.155Z,9.40
2019-05-15T00:07:19.943Z,9.40
2019-05-15T00:09:24.695Z,9.40
2019-05-15T00:11:29.370Z,9.40
2019-05-15T00:13:35.299Z,9.40
2019-05-15T00:15:40.433Z,9.40
2019-05-15T00:17:48.318Z,9.40
2019-05-15T00:19:52.815Z,9.40
2019-05-15T00:21:58.561Z,9.30
2019-05-15T00:24:03.328Z,9.30
2019-05-15T00:26:09.193Z,9.20
2019-05-15T00:28:14.067Z,9.20
2019-05-15T00:30:18.873Z,9.20
2019-05-15T00:32:23.473Z,9.20
2019-05-15T00:34:28.637Z,9.10
2019-05-15T00:36:33.917Z,9.20
2019-05-15T00:38:39.135Z,9.20
2019-05-15T00:40:44.168Z,9.10
2019-05-15T00:42:48.984Z,9.10
2019-05-15T00:44:53.486Z,9.10
2019-05-15T00:46:58.377Z,9.10
2019-05-15T00:49:03.692Z,9.10
2019-05-15T00:51:08.517Z,9.10
2019-05-15T00:53:13.425Z,9.10
2019-05-15T00:55:19.122Z,9.20
2019-05-15T00:57:24.342Z,9.10
2019-05-15T00:59:30.000Z,9.20
2019-05-15T01:01:35.135Z,9.20
2019-05-15T01:03:39.674Z,9.20
2019-05-15T01:05:50.383Z,9.20
2019-05-15T01:07:55.930Z,9.20
2019-05-15T01:10:01.545Z,9.20
2019-05-15T01:12:06.086Z,9.20
2019-05-15T01:14:12.167Z,9.10
2019-05-15T01:16:18.609Z,9.10
2019-05-15T01:18:24.112Z,9.20
2019-05-15T01:20:28.673Z,9.20
2019-05-15T01:22:33.497Z,9.20
2019-05-15T01:24:38.887Z,9.20
2019-05-15T01:26:43.661Z,9.20
2019-05-15T01:28:49.503Z,9.10
2019-05-15T01:30:54.345Z,9.10
2019-05-15T01:32:59.186Z,9.10
2019-05-15T01:35:03.684Z,9.10
2019-05-15T01:37:08.616Z,9.10
2019-05-15T01:39:13.426Z,9.10
2019-05-15T01:41:18.941Z,9.00
2019-05-15T01:43:23.587Z,9.00
2019-05-15T01:45:29.561Z,9.00
2019-05-15T01:47:34.514Z,9.00
2019-05-15T01:49:39.955Z,9.00
2019-05-15T01:51:44.820Z,9.00
2019-05-15T01:53:50.040Z,8.90
2019-05-15T01:55:54.941Z,8.90
2019-05-15T01:57:59.889Z,8.90
2019-05-15T02:00:04.849Z,8.90
2019-05-15T02:02:09.675Z,8.90
2019-05-15T02:04:19.614Z,8.90
2019-05-15T02:06:24.557Z,8.90
2019-05-15T02:08:31.273Z,8.90
2019-05-15T02:10:38.757Z,8.80
2019-05-15T02:12:42.225Z,8.80
2019-05-15T02:14:48.545Z,8.70
2019-05-15T02:16:52.824Z,8.70
2019-05-15T02:18:58.248Z,8.70
2019-05-15T02:21:06.227Z,8.70
2019-05-15T02:23:11.757Z,8.70
2019-05-15T02:25:18.419Z,8.70
2019-05-15T02:27:22.589Z,8.70
2019-05-15T02:29:28.616Z,8.70
2019-05-15T02:31:33.302Z,8.70
2019-05-15T02:33:40.129Z,8.70
2019-05-15T02:35:44.842Z,8.70
2019-05-15T02:37:49.272Z,8.70
2019-05-15T02:39:54.156Z,8.60
2019-05-15T02:41:59.499Z,8.60
2019-05-15T02:44:04.077Z,8.60
2019-05-15T02:46:10.186Z,8.60
2019-05-15T02:48:15.502Z,8.60
2019-05-15T02:50:20.611Z,8.60
2019-05-15T02:52:29.522Z,8.60
2019-05-15T02:54:34.479Z,8.50
2019-05-15T02:56:39.988Z,8.50
2019-05-15T02:58:44.630Z,8.50
2019-05-15T03:00:53.138Z,8.40
2019-05-15T03:02:55.218Z,8.40
2019-05-15T03:05:01.157Z,8.40
2019-05-15T03:07:09.627Z,8.30
2019-05-15T03:09:14.086Z,8.20
2019-05-15T03:11:19.151Z,8.20
2019-05-15T03:13:25.048Z,8.20
2019-05-15T03:15:30.748Z,8.20
2019-05-15T03:17:39.758Z,8.20
2019-05-15T03:19:43.320Z,8.20
2019-05-15T03:21:49.636Z,8.20
2019-05-15T03:23:54.525Z,8.20
2019-05-15T03:26:04.421Z,8.10
2019-05-15T03:28:10.524Z,8.00
2019-05-15T03:30:21.159Z,7.90
2019-05-15T03:32:32.697Z,7.90
2019-05-15T03:34:38.139Z,7.80
2019-05-15T03:36:45.446Z,7.70
2019-05-15T03:38:46.168Z,7.70
2019-05-15T03:40:51.340Z,7.70
2019-05-15T03:42:59.329Z,7.70
2019-05-15T03:45:03.167Z,7.60
2019-05-15T03:47:09.245Z,7.60
2019-05-15T03:49:13.903Z,7.60
2019-05-15T03:51:20.170Z,7.60
2019-05-15T03:53:24.707Z,7.60
2019-05-15T03:55:32.747Z,7.60
2019-05-15T03:59:35.524Z,7.50
2019-05-15T04:01:43.757Z,7.50
2019-05-15T04:03:49.543Z,7.60
2019-05-15T04:05:53.438Z,7.60
2019-05-15T04:08:00.399Z,7.60
2019-05-15T04:10:09.554Z,7.60
2019-05-15T04:12:12.776Z,7.60
2019-05-15T04:14:19.401Z,7.60
2019-05-15T04:16:24.999Z,7.50
2019-05-15T04:18:30.410Z,7.60
2019-05-15T04:20:36.191Z,7.60
2019-05-15T04:22:42.757Z,7.60
2019-05-15T04:24:49.522Z,7.60
2019-05-15T04:26:59.571Z,7.60
2019-05-15T04:29:02.485Z,7.70
2019-05-15T04:31:09.429Z,7.70
2019-05-15T04:33:19.708Z,7.80
2019-05-15T04:35:22.331Z,7.80
2019-05-15T04:37:29.667Z,7.80
2019-05-15T04:39:33.458Z,7.80
2019-05-15T04:41:39.249Z,7.80
2019-05-15T04:43:45.244Z,7.90
2019-05-15T04:45:50.004Z,7.90
2019-05-15T04:47:54.891Z,7.90
2019-05-15T04:49:59.415Z,8.00
2019-05-15T04:52:09.756Z,8.00
2019-05-15T04:54:13.456Z,8.00
2019-05-15T04:56:19.323Z,8.10
2019-05-15T04:58:23.989Z,8.10
2019-05-15T05:00:51.299Z,8.10
2019-05-15T05:02:58.841Z,8.20
2019-05-15T05:05:03.653Z,8.20
2019-05-15T05:07:09.691Z,8.30
2019-05-15T05:09:14.478Z,8.30
2019-05-15T05:11:23.658Z,8.30
2019-05-15T05:13:28.664Z,8.30
2019-05-15T05:15:33.083Z,8.40
2019-05-15T05:17:39.152Z,8.40
2019-05-15T05:19:43.971Z,8.40
2019-05-15T05:21:50.139Z,8.50
2019-05-15T05:23:54.823Z,8.50
2019-05-15T05:25:59.716Z,8.50
2019-05-15T05:28:04.740Z,8.50
2019-05-15T05:30:11.507Z,8.50
2019-05-15T05:32:30.535Z,8.60
2019-05-15T05:34:22.366Z,8.60
2019-05-15T05:36:27.916Z,8.60
2019-05-15T05:38:32.965Z,8.70
2019-05-15T05:40:38.581Z,8.70
2019-05-15T05:42:43.083Z,8.70
2019-05-15T05:44:50.431Z,8.80
2019-05-15T05:46:58.120Z,8.80
2019-05-15T05:49:01.933Z,8.90
2019-05-15T05:51:08.992Z,9.00
2019-05-15T05:53:13.474Z,9.00
2019-05-15T05:55:18.015Z,9.20
2019-05-15T05:57:22.942Z,9.30
2019-05-15T05:59:33.853Z,9.40
2019-05-15T06:01:43.724Z,9.50
2019-05-15T06:03:45.001Z,9.70
2019-05-15T06:05:50.084Z,9.80
2019-05-15T06:07:55.192Z,9.80
2019-05-15T06:09:59.847Z,9.90
2019-05-15T06:12:07.704Z,9.90
2019-05-15T06:14:18.119Z,10.00
2019-05-15T06:16:23.765Z,10.20
2019-05-15T06:18:31.012Z,10.20
2019-05-15T06:20:35.595Z,10.20
2019-05-15T06:22:41.706Z,10.30
2019-05-15T06:24:48.394Z,10.40
2019-05-15T06:26:53.115Z,10.40
2019-05-15T06:28:58.331Z,10.50
2019-05-15T06:31:05.339Z,10.50
2019-05-15T06:33:13.518Z,10.50
2019-05-15T06:35:19.682Z,10.60
2019-05-15T06:37:24.405Z,10.60
2019-05-15T06:39:29.261Z,10.60
2019-05-15T06:41:34.621Z,10.60
2019-05-15T06:43:39.732Z,10.60
2019-05-15T06:45:45.559Z,10.60
2019-05-15T06:47:52.072Z,10.60
2019-05-15T06:49:57.960Z,10.60
2019-05-15T06:52:05.087Z,10.60
2019-05-15T06:54:10.617Z,10.60
2019-05-15T06:56:18.551Z,10.70
2019-05-15T06:58:25.159Z,10.80
2019-05-15T07:00:30.329Z,10.70
2019-05-15T07:02:34.831Z,10.80
2019-05-15T07:04:39.609Z,10.80
2019-05-15T07:06:44.550Z,10.80
2019-05-15T07:08:49.809Z,10.90
2019-05-15T07:10:54.843Z,10.90
2019-05-15T07:12:59.874Z,10.90
2019-05-15T07:15:05.337Z,10.90
2019-05-15T07:17:12.271Z,11.00
2019-05-15T07:19:19.030Z,11.00
2019-05-15T07:21:23.129Z,11.10
2019-05-15T07:23:30.758Z,11.10
2019-05-15T07:25:34.919Z,11.10
2019-05-15T07:27:39.664Z,11.10
2019-05-15T07:29:44.506Z,11.20
2019-05-15T07:31:49.231Z,11.30
2019-05-15T07:33:54.799Z,11.20
2019-05-15T07:36:00.118Z,11.30
2019-05-15T07:38:04.544Z,11.30
2019-05-15T07:40:10.375Z,11.40
2019-05-15T07:42:14.950Z,11.40
2019-05-15T07:44:19.766Z,11.40
2019-05-15T07:46:24.319Z,11.50
2019-05-15T07:48:29.258Z,11.60
2019-05-15T07:50:34.055Z,11.70
2019-05-15T07:52:39.622Z,11.70
2019-05-15T07:54:44.341Z,11.60
2019-05-15T07:56:49.299Z,11.60
2019-05-15T07:58:53.918Z,11.70
2019-05-15T08:00:59.236Z,11.70
2019-05-15T08:03:04.402Z,11.80
2019-05-15T08:05:10.205Z,11.80
2019-05-15T08:07:14.749Z,11.70
2019-05-15T08:09:19.206Z,11.80
2019-05-15T08:11:42.365Z,11.90
2019-05-15T08:14:22.097Z,12.00
2019-05-15T08:16:28.919Z,11.90
2019-05-15T08:18:33.829Z,12.10
2019-05-15T08:20:38.687Z,12.10
2019-05-15T08:22:45.835Z,12.10
2019-05-15T08:24:50.412Z,12.10
2019-05-15T08:26:57.942Z,12.10
2019-05-15T08:29:03.076Z,12.20
2019-05-15T08:31:10.138Z,12.20
2019-05-15T08:33:14.670Z,12.30
2019-05-15T08:35:20.407Z,12.40
2019-05-15T08:37:25.303Z,12.40
2019-05-15T08:39:30.388Z,12.50
2019-05-15T08:41:34.978Z,12.40
2019-05-15T08:43:39.798Z,12.40
2019-05-15T08:45:44.792Z,12.50
2019-05-15T08:47:49.595Z,12.50
2019-05-15T08:49:54.018Z,12.50
2019-05-15T08:51:58.834Z,12.60
2019-05-15T08:54:08.589Z,12.60
2019-05-15T08:56:14.836Z,12.60
2019-05-15T08:58:20.522Z,12.60
2019-05-15T09:00:25.453Z,12.70
2019-05-15T09:02:30.143Z,12.70
2019-05-15T09:04:35.266Z,12.80
2019-05-15T09:06:41.454Z,12.80
2019-05-15T09:08:48.878Z,13.00
2019-05-15T09:10:52.282Z,13.10
2019-05-15T09:12:58.666Z,13.00
2019-05-15T09:15:04.737Z,12.90
2019-05-15T09:17:09.450Z,13.00
2019-05-15T09:19:14.706Z,13.00
2019-05-15T09:21:19.517Z,12.90
2019-05-15T09:23:24.077Z,13.00
2019-05-15T09:25:28.865Z,13.10
2019-05-15T09:27:34.614Z,13.10
2019-05-15T09:29:40.099Z,13.10
2019-05-15T09:31:44.932Z,13.10
2019-05-15T09:33:50.652Z,13.00
2019-05-15T09:35:58.331Z,13.10
2019-05-15T09:38:03.411Z,13.10
2019-05-15T09:40:09.160Z,13.10
2019-05-15T09:42:13.910Z,13.20
2019-05-15T09:44:21.782Z,13.00
2019-05-15T09:46:28.982Z,13.10
2019-05-15T09:48:33.925Z,13.10
2019-05-15T09:50:39.599Z,13.20
2019-05-15T09:52:45.033Z,13.20
2019-05-15T09:54:49.914Z,13.30
2019-05-15T09:56:54.393Z,13.20
2019-05-15T09:58:58.936Z,13.40
2019-05-15T10:01:08.538Z,13.50
2019-05-15T10:03:12.910Z,13.50
2019-05-15T10:05:18.781Z,13.50
2019-05-15T10:07:23.561Z,13.50
2019-05-15T10:09:28.572Z,13.50
2019-05-15T10:11:33.643Z,13.70
2019-05-15T10:13:38.482Z,13.80
2019-05-15T10:15:43.401Z,13.90
2019-05-15T10:17:50.880Z,14.00
2019-05-15T10:19:54.896Z,13.90
2019-05-15T10:22:04.750Z,14.00
2019-05-15T10:24:09.650Z,14.10
2019-05-15T10:26:14.591Z,14.10
2019-05-15T10:28:20.385Z,14.20
2019-05-15T10:30:28.248Z,14.10
2019-05-15T10:32:32.274Z,14.00
2019-05-15T10:34:38.437Z,14.00
2019-05-15T10:36:43.398Z,14.00
2019-05-15T10:38:49.059Z,14.00
2019-05-15T10:41:03.784Z,14.00
2019-05-15T10:43:09.413Z,14.10
2019-05-15T10:45:14.189Z,14.10
2019-05-15T10:47:18.724Z,14.00
2019-05-15T10:49:23.695Z,14.20
2019-05-15T10:51:28.800Z,14.30
2019-05-15T10:53:33.371Z,14.30
2019-05-15T10:55:39.405Z,14.20
2019-05-15T10:57:44.899Z,14.20
2019-05-15T10:59:49.831Z,14.30
2019-05-15T11:01:54.995Z,14.30
2019-05-15T11:06:09.189Z,14.20
2019-05-15T11:08:13.817Z,14.20
2019-05-15T11:10:19.460Z,14.10
2019-05-15T11:12:23.955Z,14.30
2019-05-15T11:14:29.301Z,14.40
2019-05-15T11:16:33.980Z,14.40
2019-05-15T11:18:39.404Z,14.40
2019-05-15T11:20:44.165Z,14.40
2019-05-15T11:22:50.045Z,14.40
2019-05-15T11:24:54.762Z,14.60
2019-05-15T11:27:00.664Z,14.60
2019-05-15T11:29:09.676Z,14.60
2019-05-15T11:31:16.585Z,14.60
2019-05-15T11:33:21.560Z,14.60
2019-05-15T11:35:28.536Z,14.50
2019-05-15T11:37:33.175Z,14.60
2019-05-15T11:39:46.206Z,14.70
2019-05-15T11:41:49.629Z,14.70
2019-05-15T11:43:54.413Z,14.80
2019-05-15T11:45:59.296Z,14.90
2019-05-15T11:48:03.856Z,14.80
2019-05-15T11:50:09.047Z,14.90
2019-05-15T11:52:14.141Z,15.00
2019-05-15T11:54:19.241Z,15.10
2019-05-15T11:56:24.063Z,15.20
2019-05-15T11:58:30.036Z,15.30
2019-05-15T12:00:35.049Z,15.30
2019-05-15T12:02:39.876Z,15.30
2019-05-15T12:04:44.473Z,15.40
2019-05-15T12:06:58.814Z,15.50
2019-05-15T12:08:55.488Z,15.40
2019-05-15T12:10:59.939Z,15.40
2019-05-15T12:13:04.400Z,15.50
2019-05-15T12:15:09.436Z,15.60
2019-05-15T12:17:15.529Z,15.70
2019-05-15T12:19:20.330Z,15.70
2019-05-15T12:21:25.144Z,15.70
2019-05-15T12:23:30.045Z,15.70
2019-05-15T12:25:35.509Z,15.70
2019-05-15T12:27:40.545Z,15.60
2019-05-15T12:29:45.517Z,15.70
2019-05-15T12:31:50.988Z,15.70
2019-05-15T12:33:58.184Z,15.70
2019-05-15T12:36:02.114Z,15.80
2019-05-15T12:38:10.329Z,15.80
2019-05-15T13:01:42.990Z,16.00
2019-05-15T13:03:49.997Z,16.00
2019-05-15T13:05:58.420Z,16.00
2019-05-15T13:08:03.228Z,16.20
2019-05-15T13:10:12.023Z,16.20
2019-05-15T13:12:18.796Z,16.20
2019-05-15T13:14:23.197Z,16.20
2019-05-15T13:16:28.898Z,16.30
2019-05-15T13:18:33.780Z,16.30
2019-05-15T13:20:38.552Z,16.40
2019-05-15T13:22:43.024Z,16.50
2019-05-15T13:24:48.871Z,16.50
2019-05-15T13:26:53.463Z,16.50
2019-05-15T13:28:58.457Z,16.50
2019-05-15T13:31:05.460Z,16.60
2019-05-15T13:33:10.896Z,16.70
2019-05-15T13:35:20.004Z,16.70
2019-05-15T13:37:28.151Z,16.60
2019-05-15T13:39:31.704Z,16.40
2019-05-15T13:41:38.417Z,16.20
2019-05-15T13:43:42.307Z,16.30
2019-05-15T13:45:48.919Z,16.10
2019-05-15T13:47:52.853Z,16.10
2019-05-15T13:49:58.636Z,16.20
2019-05-15T13:52:03.223Z,16.20
2019-05-15T13:54:08.691Z,16.30
2019-05-15T13:56:13.479Z,16.40
2019-05-15T13:58:18.038Z,16.50
2019-05-15T14:00:28.852Z,16.30
2019-05-15T14:02:32.563Z,16.20
2019-05-15T14:04:38.654Z,16.40
2019-05-15T14:06:43.710Z,16.40
2019-05-15T14:08:48.767Z,16.50
2019-05-15T14:10:53.466Z,16.50
2019-05-15T14:12:58.376Z,16.50
2019-05-15T14:15:02.907Z,16.50
2019-05-15T14:17:09.234Z,16.40
2019-05-15T14:19:13.639Z,16.30
2019-05-15T14:21:20.008Z,16.50
2019-05-15T14:23:24.613Z,16.40
2019-05-15T14:25:30.590Z,16.40
2019-05-15T14:27:35.350Z,16.40
2019-05-15T14:29:39.932Z,16.30
2019-05-15T14:31:44.294Z,16.20
2019-05-15T14:33:49.903Z,16.30
2019-05-15T14:35:54.357Z,16.30
2019-05-15T14:38:05.876Z,16.40
2019-05-15T14:40:05.295Z,16.50
2019-05-15T14:42:10.191Z,16.60
2019-05-15T14:44:18.675Z,16.60
2019-05-15T14:46:20.665Z,16.60
2019-05-15T14:48:25.346Z,16.60
2019-05-15T14:50:30.165Z,16.80
2019-05-15T14:52:34.908Z,16.90
2019-05-15T14:54:39.371Z,16.90
2019-05-15T14:56:43.969Z,16.80
2019-05-15T14:58:48.500Z,16.70
2019-05-15T15:00:53.167Z,16.70
2019-05-15T15:02:58.761Z,16.70
2019-05-15T15:05:04.647Z,16.90
2019-05-15T15:07:09.799Z,16.80
2019-05-15T15:09:15.784Z,16.80
2019-05-15T15:11:22.747Z,16.90
2019-05-15T15:13:29.526Z,16.90
2019-05-15T15:15:34.283Z,16.90
2019-05-15T15:17:39.796Z,16.90
2019-05-15T15:19:44.400Z,17.00
2019-05-15T15:21:49.543Z,17.00
2019-05-15T15:23:54.015Z,17.00
2019-05-15T15:25:59.016Z,17.00
2019-05-15T15:28:03.604Z,17.00
2019-05-15T15:30:10.212Z,16.90
2019-05-15T15:32:15.224Z,17.00
2019-05-15T15:34:19.941Z,17.00
2019-05-15T15:36:25.565Z,17.10
2019-05-15T15:38:40.187Z,17.20
2019-05-15T15:40:38.894Z,17.30
2019-05-15T15:42:43.827Z,17.30
2019-05-15T15:44:48.912Z,17.40
2019-05-15T15:46:54.091Z,17.30
2019-05-15T15:48:59.314Z,17.30
2019-05-15T15:51:04.896Z,17.30
2019-05-15T15:53:09.389Z,17.30
2019-05-15T15:55:14.112Z,17.30
2019-05-15T15:57:19.483Z,17.50
2019-05-15T15:59:24.126Z,17.50
2019-05-15T16:01:31.212Z,17.60
2019-05-15T16:03:38.070Z,17.60
2019-05-15T16:05:42.911Z,17.70
2019-05-15T16:07:48.479Z,17.80
2019-05-15T16:09:53.262Z,17.90
2019-05-15T16:11:58.348Z,18.00
2019-05-15T16:14:03.037Z,18.00
2019-05-15T16:16:08.546Z,18.00
2019-05-15T16:18:13.288Z,18.10
2019-05-15T16:20:18.898Z,18.10
2019-05-15T16:22:23.436Z,18.00
2019-05-15T16:24:29.297Z,18.00
2019-05-15T16:26:34.051Z,18.10
2019-05-15T16:28:38.896Z,17.90
2019-05-15T16:30:51.165Z,18.00
2019-05-15T16:32:50.821Z,18.00
2019-05-15T16:34:55.513Z,18.00
2019-05-15T16:37:02.071Z,18.10
2019-05-15T16:39:11.356Z,18.20
2019-05-15T16:41:14.063Z,18.30
2019-05-15T16:43:18.932Z,18.30
2019-05-15T16:45:23.477Z,18.40
2019-05-15T16:47:28.284Z,18.30
2019-05-15T16:49:32.818Z,18.40
2019-05-15T16:51:38.338Z,18.50
2019-05-15T16:53:42.844Z,18.60
2019-05-15T16:55:48.083Z,18.80
2019-05-15T16:57:52.668Z,18.90
2019-05-15T16:59:58.617Z,19.20
2019-05-15T17:02:03.171Z,19.50
2019-05-15T17:04:08.436Z,19.90
2019-05-15T17:06:13.070Z,20.50
2019-05-15T17:08:18.032Z,20.90
2019-05-15T17:10:22.797Z,21.10
2019-05-15T17:12:27.835Z,21.20
2019-05-15T17:14:32.799Z,21.30
2019-05-15T17:16:38.670Z,21.20
2019-05-15T17:18:43.481Z,21.30
2019-05-15T17:20:48.544Z,21.30
2019-05-15T17:22:53.031Z,21.10
2019-05-15T17:24:58.357Z,21.30
2019-05-15T17:27:04.261Z,21.00
2019-05-15T17:29:09.016Z,20.80
2019-05-15T17:31:14.840Z,20.80
2019-05-15T17:33:19.227Z,20.90
2019-05-15T17:35:23.679Z,21.10
2019-05-15T17:37:29.591Z,20.80
2019-05-15T17:39:38.895Z,20.60
2019-05-15T17:41:42.952Z,20.60
2019-05-15T17:43:48.587Z,20.20
2019-05-15T17:45:53.103Z,20.10
2019-05-15T17:47:58.582Z,20.00
2019-05-15T17:50:03.650Z,20.00
2019-05-15T17:52:08.869Z,20.00
2019-05-15T17:54:13.431Z,19.50
2019-05-15T17:56:18.250Z,18.90
2019-05-15T17:58:22.703Z,18.40
2019-05-15T18:00:28.627Z,18.00
2019-05-15T18:02:33.483Z,17.70
2019-05-15T18:04:38.696Z,17.40
2019-05-15T18:09:10.522Z,16.90
2019-05-15T18:11:15.878Z,16.60
2019-05-15T18:13:21.212Z,16.50
2019-05-15T18:15:26.194Z,16.40
2019-05-15T18:17:30.966Z,16.30
2019-05-15T18:19:35.541Z,16.20
2019-05-15T18:21:41.731Z,16.10
2019-05-15T18:23:48.659Z,15.90
2019-05-15T18:25:52.428Z,15.90
2019-05-15T18:27:59.171Z,15.80
2019-05-15T18:30:03.452Z,15.70
2019-05-15T18:32:10.170Z,15.60
2019-05-15T18:34:15.093Z,15.40
2019-05-15T18:36:19.919Z,15.40
2019-05-15T18:38:25.173Z,15.30
2019-05-15T18:40:30.746Z,15.20
2019-05-15T18:42:35.509Z,15.10
2019-05-15T18:44:40.356Z,15.10
2019-05-15T18:46:46.012Z,15.00
2019-05-15T18:48:50.644Z,15.00
2019-05-15T18:50:55.704Z,14.90
2019-05-15T18:55:11.309Z,14.80
2019-05-15T18:57:15.945Z,14.70
2019-05-15T18:59:20.578Z,14.60
2019-05-15T19:01:25.083Z,14.60
2019-05-15T19:03:29.546Z,14.50
2019-05-15T19:05:34.391Z,14.40
2019-05-15T19:07:39.333Z,14.30
2019-05-15T19:09:44.568Z,14.30
2019-05-15T19:11:49.552Z,14.20
2019-05-15T19:13:55.852Z,14.10
2019-05-15T19:16:00.423Z,14.10
2019-05-15T19:18:04.997Z,14.00
2019-05-15T19:20:10.070Z,14.00
2019-05-15T19:22:19.107Z,13.90
2019-05-15T19:24:22.949Z,13.90
2019-05-15T19:26:28.994Z,13.80
2019-05-15T19:28:33.665Z,13.80
2019-05-15T19:30:39.016Z,13.70
2019-05-15T19:32:44.174Z,13.70
2019-05-15T19:34:49.086Z,13.70
2019-05-15T19:36:54.844Z,13.60
2019-05-15T19:38:59.399Z,13.60
2019-05-15T19:41:06.670Z,13.50
2019-05-15T19:43:14.157Z,13.50
2019-05-15T19:45:19.055Z,13.40
2019-05-15T19:47:26.518Z,13.40
2019-05-15T19:49:38.642Z,13.30
2019-05-15T19:51:49.985Z,13.30
2019-05-15T19:54:24.333Z,13.20
2019-05-15T19:56:29.831Z,13.10
2019-05-15T19:58:35.411Z,13.10
2019-05-15T20:00:42.588Z,13.00
2019-05-15T20:02:48.610Z,13.00
2019-05-15T20:04:58.294Z,13.00
2019-05-15T20:07:04.833Z,12.90
2019-05-15T20:09:12.491Z,12.90
2019-05-15T20:11:18.415Z,12.80
2019-05-15T20:13:23.711Z,12.80
2019-05-15T20:15:28.958Z,12.70
2019-05-15T20:17:35.384Z,12.60
2019-05-15T20:19:42.560Z,12.60
2019-05-15T20:21:55.318Z,12.60
2019-05-15T20:24:22.860Z,12.60
2019-05-15T20:26:33.169Z,12.60
2019-05-15T20:28:57.691Z,12.60
2019-05-15T20:30:55.334Z,12.50
2019-05-15T20:33:02.288Z,12.50
2019-05-15T20:35:12.418Z,12.40
2019-05-15T20:38:08.041Z,12.40
2019-05-15T20:40:35.164Z,12.40
2019-05-15T20:42:54.519Z,12.40
2019-05-15T20:45:01.186Z,12.30
2019-05-15T20:47:18.908Z,12.20
2019-05-15T20:49:25.285Z,12.20
2019-05-15T20:51:38.973Z,12.10
2019-05-15T20:53:48.997Z,12.10
2019-05-15T20:55:59.041Z,12.10
2019-05-15T20:58:04.396Z,12.00
2019-05-15T21:00:11.223Z,11.90
2019-05-15T21:02:18.576Z,11.90
2019-05-15T21:04:25.040Z,11.90
2019-05-15T21:06:30.526Z,11.90
2019-05-15T21:08:37.917Z,11.90
2019-05-15T21:10:43.209Z,11.90
2019-05-15T21:12:49.039Z,11.80
2019-05-15T21:14:58.208Z,11.90
2019-05-15T21:17:02.995Z,11.80
2019-05-15T21:19:09.678Z,11.80
2019-05-15T21:21:14.719Z,11.70
2019-05-15T21:23:19.803Z,11.60
2019-05-15T21:25:24.959Z,11.60
2019-05-15T21:27:32.762Z,11.60
2019-05-15T21:29:38.198Z,11.60
2019-05-15T21:31:42.326Z,11.60
2019-05-15T21:33:48.155Z,11.50
2019-05-15T21:35:53.346Z,11.50
2019-05-15T21:37:58.016Z,11.50
2019-05-15T21:40:02.767Z,11.50
2019-05-15T21:42:08.890Z,11.50
2019-05-15T21:44:14.743Z,11.50
2019-05-15T21:46:19.216Z,11.50
2019-05-15T21:48:23.834Z,11.50
2019-05-15T21:50:33.114Z,11.50
2019-05-15T21:52:45.776Z,11.40
2019-05-15T21:54:50.642Z,11.40
2019-05-15T21:57:12.845Z,11.40
2019-05-15T21:59:08.186Z,11.30
2019-05-15T22:01:13.000Z,11.30
2019-05-15T22:03:20.147Z,11.30
2019-05-15T22:05:25.013Z,11.20
2019-05-15T22:07:29.838Z,11.20
2019-05-15T22:09:38.087Z,11.20
2019-05-15T22:11:42.666Z,11.10
2019-05-15T22:13:48.612Z,11.20
2019-05-15T22:15:53.419Z,11.20
2019-05-15T22:17:58.697Z,11.20
2019-05-15T22:20:03.216Z,11.20
2019-05-15T22:22:08.739Z,11.20
2019-05-15T22:24:14.615Z,11.20
2019-05-15T22:26:21.619Z,11.10
2019-05-15T22:28:27.980Z,11.10
2019-05-15T22:30:32.755Z,11.10
2019-05-15T22:33:23.061Z,11.10
2019-05-15T22:36:09.200Z,11.00
2019-05-15T22:38:14.393Z,11.00
2019-05-15T22:41:28.409Z,11.10
2019-05-15T22:43:32.560Z,11.10
2019-05-15T22:45:37.905Z,11.00
2019-05-15T22:47:42.353Z,11.10
2019-05-15T22:49:48.507Z,11.00
2019-05-15T22:51:52.956Z,11.00
2019-05-15T22:53:58.070Z,11.10
2019-05-15T22:56:02.652Z,11.10
2019-05-15T22:58:08.710Z,11.00
2019-05-15T23:00:14.449Z,11.00
2019-05-15T23:02:23.495Z,11.00
2019-05-15T23:04:28.707Z,10.90
2019-05-15T23:06:33.281Z,10.80
2019-05-15T23:08:38.419Z,10.80
2019-05-15T23:10:43.090Z,10.80
2019-05-15T23:12:48.700Z,10.80
2019-05-15T23:17:59.905Z,10.80
2019-05-15T23:20:08.675Z,10.70
2019-05-15T23:22:13.275Z,10.70
2019-05-15T23:24:19.015Z,10.70
2019-05-15T23:26:23.381Z,10.70
2019-05-15T23:28:28.188Z,10.70
2019-05-15T23:30:32.719Z,10.70
2019-05-15T23:32:39.204Z,10.70
2019-05-15T23:34:43.732Z,10.60
2019-05-15T23:36:48.372Z,10.60
2019-05-15T23:38:53.188Z,10.60
2019-05-15T23:40:58.957Z,10.60
2019-05-15T23:43:05.573Z,10.60
2019-05-15T23:45:11.246Z,10.60
2019-05-15T23:47:17.982Z,10.60
2019-05-15T23:49:22.921Z,10.60
2019-05-15T23:51:28.032Z,10.50
2019-05-15T23:53:32.481Z,10.50
2019-05-15T23:55:36.994Z,10.50
2019-05-15T23:57:41.764Z,10.50
2019-05-15T23:59:47.730Z,10.50
